Time;durP1;ratioP1;P1;durP2;ratioP2;P2;SDS_P1;SDS_P2;PMS_P1;PMS_P2;Temp;Humidity;BMP_temperature;BMP_pressure;BME280_temperature;BME280_humidity;BME280_pressure;Samples;Min_cycle;Max_cycle;Signal;HPM_P1;HPM_P2
2023/02/15 00:00:10;;;;;;;59.50;32.80;;;;;;;2.93;70.03;100758.77;105085;1259;97141;-74
2023/02/15 00:02:58;;;;;;;59.60;36.50;;;;;;;2.93;70.14;100761.56;105196;1264;113189;-75
2023/02/15 00:05:29;;;;;;;51.70;31.30;;;;;;;2.92;70.01;100759.48;105317;1257;101255;-76
2023/02/15 00:07:56;;;;;;;54.20;33.20;;;;;;;2.90;70.08;100760.55;105263;1251;107650;-75
2023/02/15 00:10:24;;;;;;;51.00;30.00;;;;;;;2.89;70.05;100763.02;105161;1266;96648;-75
2023/02/15 00:12:52;;;;;;;52.40;28.50;;;;;;;2.89;70.08;100765.65;105468;1256;97102;-77
2023/02/15 00:15:20;;;;;;;53.90;30.30;;;;;;;2.90;69.95;100763.89;105209;1251;111203;-75
2023/02/15 00:17:49;;;;;;;52.70;32.00;;;;;;;2.91;70.01;100763.00;105334;1256;100843;-75
2023/02/15 00:20:18;;;;;;;47.60;28.20;;;;;;;2.90;69.97;100763.53;105242;1257;108281;-75
2023/02/15 00:22:46;;;;;;;59.40;31.30;;;;;;;2.89;69.90;100766.34;105332;1256;96594;-74
2023/02/15 00:25:13;;;;;;;52.90;31.70;;;;;;;2.90;69.91;100766.67;105420;1257;97000;-76
2023/02/15 00:27:42;;;;;;;47.40;28.30;;;;;;;2.90;70.06;100764.23;105408;1255;109949;-79
2023/02/15 00:30:11;;;;;;;47.70;26.60;;;;;;;2.87;69.95;100759.54;105388;1257;101474;-75
2023/02/15 00:32:39;;;;;;;51.20;29.30;;;;;;;2.86;70.19;100756.58;105408;1257;107626;-76
2023/02/15 00:35:07;;;;;;;46.40;27.10;;;;;;;2.86;69.97;100755.00;105364;1251;96683;-75
2023/02/15 00:37:35;;;;;;;46.60;26.20;;;;;;;2.85;69.93;100751.70;105293;1255;97426;-75
2023/02/15 00:40:03;;;;;;;48.10;27.00;;;;;;;2.85;69.91;100751.54;105393;1255;108556;-75
2023/02/15 00:42:32;;;;;;;43.90;26.10;;;;;;;2.84;69.83;100750.30;105433;1254;100934;-75
2023/02/15 00:45:00;;;;;;;44.70;25.20;;;;;;;2.84;69.84;100749.61;105139;1267;107222;-75
2023/02/15 00:47:28;;;;;;;44.20;25.90;;;;;;;2.83;70.01;100746.99;105181;1257;96597;-75
2023/02/15 00:49:56;;;;;;;46.50;26.70;;;;;;;2.81;70.02;100749.98;105197;1251;97000;-75
2023/02/15 00:52:23;;;;;;;53.00;26.00;;;;;;;2.81;69.99;100750.87;105171;1257;109745;-75
2023/02/15 00:54:51;;;;;;;50.60;28.90;;;;;;;2.79;69.84;100747.57;105391;1255;102491;-78
2023/02/15 00:57:19;;;;;;;50.20;27.80;;;;;;;2.81;70.11;100746.33;105238;1256;106869;-75
2023/02/15 00:59:48;;;;;;;47.40;26.80;;;;;;;2.83;70.07;100744.02;105337;1272;97824;-78
2023/02/15 01:02:16;;;;;;;48.20;28.20;;;;;;;2.83;69.95;100744.02;105567;1255;96686;-75
2023/02/15 01:04:43;;;;;;;59.60;40.10;;;;;;;2.81;70.03;100745.44;105455;1255;110257;-75
2023/02/15 01:07:12;;;;;;;55.30;38.90;;;;;;;2.80;70.00;100740.90;105392;1255;100883;-75
2023/02/15 01:09:40;;;;;;;53.80;35.10;;;;;;;2.80;69.66;100739.48;105239;1251;108702;-75
2023/02/15 01:12:08;;;;;;;53.40;33.30;;;;;;;2.80;69.83;100734.94;105377;1257;96600;-75
2023/02/15 01:14:37;;;;;;;42.00;24.90;;;;;;;2.81;69.97;100731.60;105170;1256;97032;-75
2023/02/15 01:17:05;;;;;;;45.80;27.70;;;;;;;2.80;69.86;100728.45;105178;1252;109788;-74
2023/02/15 01:19:32;;;;;;;44.70;25.10;;;;;;;2.79;69.90;100729.00;105269;1256;100465;-75
2023/02/15 01:22:00;;;;;;;46.10;25.60;;;;;;;2.79;69.82;100729.35;105419;1256;108411;-75
2023/02/15 01:24:28;;;;;;;44.60;25.10;;;;;;;2.78;70.04;100730.23;105209;1257;97479;-75
2023/02/15 01:26:56;;;;;;;44.20;25.60;;;;;;;2.79;69.98;100729.17;105197;1257;97098;-75
2023/02/15 01:29:25;;;;;;;42.60;25.00;;;;;;;2.77;69.95;100731.99;105329;1256;109066;-74
2023/02/15 01:31:52;;;;;;;44.80;24.70;;;;;;;2.76;70.08;100728.85;105318;1264;101087;-75
2023/02/15 01:34:20;;;;;;;45.80;27.40;;;;;;;2.75;69.97;100727.66;105457;1255;107543;-74
2023/02/15 01:36:48;;;;;;;44.40;26.90;;;;;;;2.74;70.00;100728.36;105435;1257;96593;-79
2023/02/15 01:39:16;;;;;;;43.60;27.80;;;;;;;2.75;69.90;100721.88;105152;1257;97087;-75
2023/02/15 01:41:44;;;;;;;46.90;30.10;;;;;;;2.74;69.90;100723.81;105351;1256;108898;-74
2023/02/15 01:44:47;;;;;;;45.30;27.80;;;;;;;2.73;69.98;100720.50;105403;1251;101034;-75
2023/02/15 01:47:46;;;;;;;43.70;25.90;;;;;;;2.75;69.90;100720.82;105190;1251;107587;-76
2023/02/15 01:50:26;;;;;;;47.70;28.10;;;;;;;2.74;69.95;100715.58;105293;1257;96677;-74
2023/02/15 01:53:19;;;;;;;45.10;24.60;;;;;;;2.73;70.06;100714.36;105252;1255;97507;-75
2023/02/15 01:56:04;;;;;;;45.70;25.40;;;;;;;2.73;69.86;100714.89;105210;1257;109397;-74
2023/02/15 01:58:35;;;;;;;44.70;23.80;;;;;;;2.72;69.91;100713.68;105188;1251;100926;-74
2023/02/15 02:01:07;;;;;;;43.40;24.80;;;;;;;2.71;69.93;100709.48;105283;1251;106953;-74
2023/02/15 02:04:02;;;;;;;46.40;25.60;;;;;;;2.70;69.83;100704.24;105276;1256;96638;-74
2023/02/15 02:06:33;;;;;;;40.10;21.90;;;;;;;2.68;70.06;100701.46;105335;1256;97438;-74
2023/02/15 02:09:02;;;;;;;45.10;25.30;;;;;;;2.66;69.86;100701.48;105317;1255;111500;-75
2023/02/15 02:11:30;;;;;;;43.10;23.00;;;;;;;2.66;70.15;100695.01;105365;1257;101547;-74
2023/02/15 02:13:58;;;;;;;44.50;23.50;;;;;;;2.68;69.87;100697.27;105342;1257;107096;-75
2023/02/15 02:16:55;;;;;;;44.50;25.90;;;;;;;2.70;69.91;100697.59;105169;1251;96627;-80
2023/02/15 02:19:45;;;;;;;41.40;24.40;;;;;;;2.68;69.83;100689.19;105343;1257;97071;-74
2023/02/15 02:22:25;;;;;;;43.20;26.70;;;;;;;2.68;69.77;100693.40;105290;1255;109983;-74
2023/02/15 02:25:08;;;;;;;43.00;24.30;;;;;;;2.70;69.91;100690.23;105211;1273;99841;-75
2023/02/15 02:27:43;;;;;;;41.50;23.10;;;;;;;2.71;69.89;100692.67;105139;1257;107563;-74
2023/02/15 02:30:29;;;;;;;44.80;25.80;;;;;;;2.73;70.00;100688.09;105306;1265;96749;-74
2023/02/15 02:33:12;;;;;;;49.60;28.70;;;;;;;2.75;69.82;100689.10;105287;1257;97191;-74
2023/02/15 02:36:16;;;;;;;42.70;25.20;;;;;;;2.76;69.95;100691.20;105242;1257;110017;-74
2023/02/15 02:38:56;;;;;;;36.20;19.10;;;;;;;2.75;69.88;100690.52;105561;1254;100890;-74
2023/02/15 02:41:27;;;;;;;46.60;26.10;;;;;;;2.74;69.94;100691.92;105165;1257;107069;-74
2023/02/15 02:44:10;;;;;;;49.70;27.80;;;;;;;2.74;69.93;100693.67;105397;1257;96586;-75
2023/02/15 02:46:49;;;;;;;47.40;26.30;;;;;;;2.74;70.12;100692.11;105350;1256;96609;-74
2023/02/15 02:49:38;;;;;;;51.40;27.60;;;;;;;2.74;69.94;100691.23;105368;1257;109682;-74
2023/02/15 02:52:35;;;;;;;46.40;26.40;;;;;;;2.73;70.01;100700.70;105160;1264;100830;-75
2023/02/15 02:55:12;;;;;;;50.50;29.10;;;;;;;2.74;70.25;100701.92;105433;1257;107771;-75
2023/02/15 02:57:50;;;;;;;45.20;25.30;;;;;;;2.74;69.88;100697.35;105277;1256;97601;-75
2023/02/15 03:00:20;;;;;;;44.90;26.10;;;;;;;2.74;69.94;100701.38;105352;1256;97910;-78
2023/02/15 03:02:53;;;;;;;44.30;25.30;;;;;;;2.74;69.90;100699.11;105342;1256;109392;-74
2023/02/15 03:05:26;;;;;;;46.00;26.10;;;;;;;2.74;69.91;100696.14;105352;1252;100720;-74
2023/02/15 03:07:56;;;;;;;45.90;23.80;;;;;;;2.73;70.00;100698.42;105324;1267;107303;-75
2023/02/15 03:10:25;;;;;;;41.80;23.60;;;;;;;2.72;70.02;100698.27;105343;1255;96667;-74
2023/02/15 03:12:53;;;;;;;49.40;26.10;;;;;;;2.70;70.00;100699.67;105364;1257;97074;-76
2023/02/15 03:16:25;;;;;;;51.20;27.60;;;;;;;2.70;69.87;100701.45;105418;1255;109729;-75
2023/02/15 03:18:22;;;;;;;46.10;25.70;;;;;;;2.68;69.83;100703.04;105586;1255;100421;-74
2023/02/15 03:20:52;;;;;;;44.70;25.40;;;;;;;2.68;69.92;100701.98;105323;1257;105468;-74
2023/02/15 03:23:24;;;;;;;50.80;27.10;;;;;;;2.68;69.84;100700.06;105299;1258;96622;-77
2023/02/15 03:25:59;;;;;;;52.60;29.30;;;;;;;2.70;69.99;100704.95;105187;1258;97942;-83
2023/02/15 03:28:51;;;;;;;48.00;27.90;;;;;;;2.70;69.97;100700.73;105346;1257;108102;-75
2023/02/15 03:31:22;;;;;;;47.70;27.30;;;;;;;2.70;69.88;100698.45;105383;1256;100785;-75
2023/02/15 03:33:57;;;;;;;43.80;26.10;;;;;;;2.71;70.07;100700.20;105422;1256;107626;-75
2023/02/15 03:36:50;;;;;;;45.30;26.20;;;;;;;2.69;69.91;100694.62;105765;1256;97926;-74
2023/02/15 03:39:34;;;;;;;44.00;25.40;;;;;;;2.67;69.78;100698.68;105474;1257;96648;-74
2023/02/15 03:42:09;;;;;;;43.10;24.60;;;;;;;2.65;69.78;100699.23;105375;1255;109873;-74
2023/02/15 03:44:50;;;;;;;42.70;24.10;;;;;;;2.64;69.99;100699.25;105288;1257;102695;-74
2023/02/15 03:47:22;;;;;;;42.60;24.70;;;;;;;2.63;69.92;100698.39;105319;1261;107606;-75
2023/02/15 03:49:57;;;;;;;44.80;25.90;;;;;;;2.64;69.80;100697.15;105346;1257;96599;-75
2023/02/15 03:52:29;;;;;;;45.80;25.20;;;;;;;2.65;69.90;100695.38;105336;1256;97331;-73
2023/02/15 03:54:57;;;;;;;41.20;22.70;;;;;;;2.64;69.99;100691.71;105450;1256;108562;-75
2023/02/15 04:03:15;;;;;;;44.50;25.10;;;;;;;2.60;69.83;100683.36;105219;1265;97967;-78
2023/02/15 04:05:44;;;;;;;43.80;24.20;;;;;;;2.58;69.97;100683.23;105562;1256;97539;-74
2023/02/15 04:08:13;;;;;;;41.00;21.50;;;;;;;2.55;69.71;100682.21;105382;1256;109863;-74
2023/02/15 04:10:53;;;;;;;48.20;25.70;;;;;;;2.57;70.01;100682.52;105592;1256;100496;-75
2023/02/15 04:13:32;;;;;;;44.60;24.20;;;;;;;2.57;69.80;100680.25;105186;1252;107737;-74
2023/02/15 04:16:05;;;;;;;39.60;23.60;;;;;;;2.59;70.00;100680.41;105338;1266;96545;-75
2023/02/15 04:27:03;;;;;;;43.40;23.40;;;;;;;2.56;70.06;100674.66;105096;1256;106028;-74
2023/02/15 04:29:31;;;;;;;47.10;26.40;;;;;;;2.57;69.97;100674.13;105340;1255;96667;-74
2023/02/15 04:32:02;;;;;;;47.80;25.60;;;;;;;2.57;69.92;100673.77;105344;1256;97090;-75
2023/02/15 04:34:30;;;;;;;47.60;24.70;;;;;;;2.54;69.95;100671.02;105395;1257;109895;-76
2023/02/15 04:36:58;;;;;;;44.90;25.30;;;;;;;2.52;70.00;100671.20;105487;1256;100641;-75
2023/02/15 04:39:27;;;;;;;45.40;25.80;;;;;;;2.52;70.02;100668.75;105349;1264;107214;-76
2023/02/15 04:41:54;;;;;;;45.70;25.40;;;;;;;2.53;70.04;100663.48;105324;1257;96720;-75
2023/02/15 04:44:22;;;;;;;48.70;26.40;;;;;;;2.52;69.84;100662.98;105424;1257;97070;-74
2023/02/15 04:46:50;;;;;;;45.20;25.40;;;;;;;2.52;69.84;100665.25;105387;1251;109383;-74
2023/02/15 04:49:18;;;;;;;48.80;26.80;;;;;;;2.51;69.97;100665.80;105352;1256;99890;-75
2023/02/15 04:51:47;;;;;;;45.60;25.40;;;;;;;2.51;70.04;100667.36;105342;1264;107098;-74
2023/02/15 04:54:14;;;;;;;48.80;28.30;;;;;;;2.49;70.09;100668.63;105144;1263;96594;-75
2023/02/15 04:56:43;;;;;;;47.30;25.70;;;;;;;2.46;69.72;100669.19;105401;1255;97016;-74
2023/02/15 04:59:11;;;;;;;47.90;26.30;;;;;;;2.45;69.93;100673.23;105305;1264;109915;-75
2023/02/15 05:01:39;;;;;;;46.00;26.50;;;;;;;2.45;69.93;100669.90;105357;1261;100876;-75
2023/02/15 05:04:08;;;;;;;47.80;26.20;;;;;;;2.45;70.06;100671.13;108681;1251;108375;-76
2023/02/15 05:06:36;;;;;;;46.70;25.50;;;;;;;2.46;69.80;100672.53;108451;1255;96606;-75
2023/02/15 05:09:04;;;;;;;47.50;25.60;;;;;;;2.44;69.90;100674.83;105367;1256;97145;-75
2023/02/15 05:11:32;;;;;;;49.90;26.90;;;;;;;2.44;69.90;100675.88;105573;1257;109288;-76
2023/02/15 05:14:00;;;;;;;52.80;28.50;;;;;;;2.46;69.71;100674.96;108731;1251;100529;-76
2023/02/15 05:16:28;;;;;;;46.10;25.90;;;;;;;2.48;69.82;100674.23;107329;1256;107545;-75
2023/02/15 05:18:56;;;;;;;49.20;26.50;;;;;;;2.47;69.82;100676.35;105360;1256;97866;-74
2023/02/15 05:21:24;;;;;;;46.70;25.20;;;;;;;2.46;69.93;100678.46;105401;1257;97729;-74
2023/02/15 05:23:52;;;;;;;48.90;26.60;;;;;;;2.46;69.73;100681.09;105450;1251;109610;-77
2023/02/15 05:29:10;;;;;;;62.20;34.40;;;;;;;2.45;69.77;100684.61;105561;1256;107668;-74
2023/02/15 05:31:38;;;;;;;59.10;31.50;;;;;;;2.46;69.65;100684.42;105210;1257;97528;-74
2023/02/15 05:34:06;;;;;;;70.70;38.00;;;;;;;2.46;69.64;100684.60;105419;1256;97054;-74
2023/02/15 05:36:34;;;;;;;68.80;36.40;;;;;;;2.46;70.10;100683.71;105436;1256;109537;-75
2023/02/15 05:39:03;;;;;;;40.10;22.00;;;;;;;2.44;69.80;100686.55;105423;1257;100623;-75
2023/02/15 05:41:31;;;;;;;36.40;18.80;;;;;;;2.40;69.69;100688.36;105481;1267;107617;-74
2023/02/15 05:43:59;;;;;;;36.70;18.70;;;;;;;2.38;69.46;100690.65;105187;1257;96594;-74
2023/02/15 05:46:27;;;;;;;35.60;19.50;;;;;;;2.36;69.70;100692.77;105434;1257;97096;-75
2023/02/15 05:48:55;;;;;;;36.30;18.60;;;;;;;2.38;69.75;100692.06;105431;1256;109458;-75
2023/02/15 05:51:23;;;;;;;38.70;19.70;;;;;;;2.40;69.73;100691.52;105175;1256;99754;-74
2023/02/15 05:53:51;;;;;;;36.90;20.20;;;;;;;2.38;69.71;100690.48;105394;1265;106821;-76
2023/02/15 05:56:19;;;;;;;36.10;18.50;;;;;;;2.38;69.72;100693.11;105357;1267;96599;-74
2023/02/15 05:58:47;;;;;;;35.50;18.20;;;;;;;2.38;69.55;100691.71;105399;1260;97070;-74
2023/02/15 06:01:18;;;;;;;34.90;18.70;;;;;;;2.41;69.70;100692.91;105453;1256;110588;-75
2023/02/15 06:03:45;;;;;;;34.10;19.40;;;;;;;2.44;69.82;100693.04;105401;1256;100152;-74
2023/02/15 06:06:14;;;;;;;34.40;18.10;;;;;;;2.45;69.54;100695.13;105403;1257;107605;-74
2023/02/15 06:08:42;;;;;;;36.10;18.80;;;;;;;2.45;69.45;100697.73;105168;1265;96606;-75
2023/02/15 06:11:09;;;;;;;37.00;18.50;;;;;;;2.45;69.49;100701.41;105401;1260;97112;-74
2023/02/15 06:13:38;;;;;;;32.70;17.70;;;;;;;2.47;69.62;100703.67;105447;1264;109514;-74
2023/02/15 06:16:06;;;;;;;35.30;18.20;;;;;;;2.49;69.57;100708.04;105482;1255;100926;-74
2023/02/15 06:18:34;;;;;;;38.90;21.20;;;;;;;2.52;69.64;100706.23;105395;1267;107625;-73
2023/02/15 06:21:02;;;;;;;38.50;20.20;;;;;;;2.56;69.51;100704.61;105494;1258;96597;-74
2023/02/15 06:23:30;;;;;;;35.20;19.00;;;;;;;2.58;69.61;100706.52;105096;1254;97524;-75
2023/02/15 06:25:58;;;;;;;38.90;19.30;;;;;;;2.60;69.73;100711.21;105415;1254;109929;-74
2023/02/15 06:28:26;;;;;;;32.60;17.60;;;;;;;2.62;69.55;100713.64;105641;1254;102715;-74
2023/02/15 06:30:54;;;;;;;36.30;19.20;;;;;;;2.64;69.51;100715.36;105720;1254;107964;-73
2023/02/15 06:33:23;;;;;;;32.90;18.50;;;;;;;2.68;69.80;100713.55;105833;1266;96684;-75
2023/02/15 06:35:51;;;;;;;39.80;20.50;;;;;;;2.72;69.52;100716.83;105911;1254;96533;-75
2023/02/15 06:38:19;;;;;;;35.20;19.10;;;;;;;2.76;69.52;100718.18;108752;1251;109904;-76
2023/02/15 06:40:48;;;;;;;36.30;19.00;;;;;;;2.79;69.65;100719.89;108087;1254;100491;-75
2023/02/15 06:43:16;;;;;;;36.90;19.80;;;;;;;2.81;69.53;100720.21;105273;1264;301242;-73
2023/02/15 06:45:44;;;;;;;35.80;18.60;;;;;;;2.80;69.29;100719.16;106479;1254;96591;-74
2023/02/15 06:48:11;;;;;;;39.20;19.20;;;;;;;2.79;69.11;100716.03;105584;1251;97102;-75
2023/02/15 06:50:39;;;;;;;35.10;18.30;;;;;;;2.81;69.25;100718.11;105595;1254;109907;-74
2023/02/15 06:53:07;;;;;;;32.50;17.40;;;;;;;2.87;69.33;100718.38;105574;1256;100567;-73
2023/02/15 06:55:35;;;;;;;35.20;19.70;;;;;;;2.94;69.62;100716.34;105705;1256;107412;-73
2023/02/15 06:58:03;;;;;;;34.70;18.60;;;;;;;2.99;69.59;100717.67;105557;1264;96612;-73
2023/02/15 07:00:31;;;;;;;36.00;19.30;;;;;;;3.04;69.50;100717.78;105523;1254;97537;-73
2023/02/15 07:02:59;;;;;;;40.70;23.50;;;;;;;3.08;69.25;100712.81;105661;1254;109989;-75
2023/02/15 07:05:30;;;;;;;41.50;21.40;;;;;;;3.11;69.27;100713.10;105401;1257;101337;-74
2023/02/15 07:08:00;;;;;;;38.00;20.30;;;;;;;3.15;69.32;100710.60;105425;1257;107691;-73
2023/02/15 07:10:28;;;;;;;38.20;20.50;;;;;;;3.19;69.32;100708.07;105658;1254;96591;-74
2023/02/15 07:12:56;;;;;;;39.00;20.70;;;;;;;3.25;69.51;100712.55;105315;1264;97925;-76
2023/02/15 07:15:24;;;;;;;36.00;20.20;;;;;;;3.30;69.29;100710.36;105311;1264;110396;-79
2023/02/15 07:17:52;;;;;;;39.90;19.90;;;;;;;3.34;69.27;100710.80;105297;1256;101257;-78
2023/02/15 07:20:22;;;;;;;36.80;19.70;;;;;;;3.40;69.38;100713.36;105693;1256;107240;-75
2023/02/15 07:22:51;;;;;;;36.10;19.50;;;;;;;3.44;69.36;100712.77;105340;1252;96692;-77
2023/02/15 07:25:19;;;;;;;36.10;20.30;;;;;;;3.49;69.32;100710.57;105382;1257;97141;-76
2023/02/15 07:27:47;;;;;;;35.10;19.90;;;;;;;3.52;69.25;100707.20;105630;1251;110424;-75
2023/02/15 07:30:16;;;;;;;36.80;19.30;;;;;;;3.56;69.15;100704.66;105402;1256;102787;-78
2023/02/15 07:35:34;;;;;;;34.80;18.80;;;;;;;3.66;69.38;100707.65;105434;1265;96537;-75
2023/02/15 07:38:02;;;;;;;39.20;21.50;;;;;;;3.71;69.30;100710.02;105433;1255;97098;-74
2023/02/15 07:40:30;;;;;;;34.40;19.50;;;;;;;3.76;69.53;100708.89;105305;1264;109286;-74
2023/02/15 07:42:58;;;;;;;33.50;17.70;;;;;;;3.78;69.25;100708.67;105624;1255;100604;-74
2023/02/15 07:45:27;;;;;;;44.80;23.70;;;;;;;3.78;69.13;100707.79;105498;1254;107575;-73
2023/02/15 07:47:54;;;;;;;40.50;21.70;;;;;;;3.77;69.15;100708.33;105328;1264;96606;-76
2023/02/15 07:50:23;;;;;;;36.00;20.70;;;;;;;3.80;69.21;100711.26;105304;1257;97002;-73
2023/02/15 07:52:51;;;;;;;41.80;22.30;;;;;;;3.85;69.22;100711.52;105740;1254;110023;-73
2023/02/15 07:55:19;;;;;;;41.30;19.30;;;;;;;3.87;69.06;100711.48;105458;1274;100852;-73
2023/02/15 07:57:49;;;;;;;37.60;19.40;;;;;;;3.87;68.68;100704.64;105799;1254;108746;-76
2023/02/15 08:00:22;;;;;;;35.20;19.30;;;;;;;3.83;68.52;100698.57;105260;1260;97896;-74
2023/02/15 08:03:12;;;;;;;33.60;18.40;;;;;;;3.85;68.88;100699.58;105980;1254;96593;-76
2023/02/15 08:05:43;;;;;;;47.60;26.90;;;;;;;3.96;69.21;100695.17;105529;1258;110057;-76
2023/02/15 08:08:31;;;;;;;40.10;21.90;;;;;;;4.05;68.98;100691.33;105505;1264;100904;-75
2023/02/15 08:11:25;;;;;;;37.50;20.40;;;;;;;4.15;68.93;100687.08;105788;1257;107970;-75
2023/02/15 08:13:54;;;;;;;39.00;20.70;;;;;;;4.23;69.10;100684.11;105328;1251;96648;-81
2023/02/15 08:16:41;;;;;;;38.40;20.50;;;;;;;4.29;68.84;100681.34;105507;1256;97005;-74
2023/02/15 08:19:27;;;;;;;34.90;18.50;;;;;;;4.39;68.89;100680.95;105906;1256;110231;-75
2023/02/15 08:21:58;;;;;;;37.80;19.90;;;;;;;4.44;68.84;100683.48;105571;1257;100875;-75
2023/02/15 08:24:31;;;;;;;35.00;19.20;;;;;;;4.45;68.69;100681.35;105533;1251;106813;-74
2023/02/15 08:27:02;;;;;;;36.30;20.10;;;;;;;4.45;68.64;100684.34;105760;1256;97813;-73
2023/02/15 08:29:35;;;;;;;37.40;20.90;;;;;;;4.50;68.74;100685.98;105726;1257;96650;-73
2023/02/15 08:32:06;;;;;;;39.50;20.80;;;;;;;4.58;68.73;100687.41;105486;1267;109753;-73
2023/02/15 08:34:37;;;;;;;41.40;23.50;;;;;;;4.60;68.37;100681.91;105428;1254;101199;-74
2023/02/15 08:37:05;;;;;;;34.20;19.10;;;;;;;4.59;68.53;100677.90;105452;1254;107597;-76
2023/02/15 08:39:33;;;;;;;37.50;19.90;;;;;;;4.60;68.31;100679.45;105699;1254;96625;-78
2023/02/15 08:42:02;;;;;;;43.20;22.20;;;;;;;4.57;68.34;100677.07;105699;1251;97099;-75
2023/02/15 08:44:30;;;;;;;40.20;22.40;;;;;;;4.54;68.36;100673.45;105918;1254;109889;-77
2023/02/15 08:47:03;;;;;;;37.80;20.80;;;;;;;4.58;68.44;100681.44;105948;1251;101001;-76
2023/02/15 08:49:34;;;;;;;33.50;19.90;;;;;;;4.64;68.55;100678.68;105830;1256;107279;-80
2023/02/15 08:52:02;;;;;;;34.80;18.50;;;;;;;4.69;68.55;100682.08;105682;1263;96647;-76
2023/02/15 08:54:31;;;;;;;35.30;18.90;;;;;;;4.73;68.38;100679.34;106183;1251;96539;-77
2023/02/15 08:57:00;;;;;;;35.80;19.50;;;;;;;4.79;68.38;100679.22;105832;1254;110596;-76
2023/02/15 08:59:28;;;;;;;35.00;19.20;;;;;;;4.84;68.49;100677.36;106330;1251;100855;-76
2023/02/15 09:01:56;;;;;;;33.50;19.40;;;;;;;4.86;68.58;100682.39;106175;1254;107618;-76
2023/02/15 09:04:24;;;;;;;36.00;19.10;;;;;;;4.87;68.46;100677.98;105811;1251;96516;-83
2023/02/15 09:06:52;;;;;;;34.60;19.60;;;;;;;4.88;68.27;100674.80;105654;1254;97416;-77
2023/02/15 09:09:21;;;;;;;37.60;21.50;;;;;;;4.83;67.95;100674.90;105540;1254;109514;-77
2023/02/15 09:11:51;;;;;;;36.20;20.00;;;;;;;4.76;67.45;100675.07;105983;1251;102862;-76
2023/02/15 09:14:27;;;;;;;37.00;19.50;;;;;;;4.68;67.68;100674.38;105532;1257;106856;-76
2023/02/15 09:16:55;;;;;;;41.10;22.20;;;;;;;4.65;67.66;100672.15;105909;1251;96600;-75
2023/02/15 09:19:24;;;;;;;40.90;21.50;;;;;;;4.67;67.95;100668.07;105542;1254;97537;-77
2023/02/15 09:21:52;;;;;;;38.70;20.50;;;;;;;4.67;67.83;100667.89;105417;1254;110093;-85
2023/02/15 09:24:21;;;;;;;40.80;22.00;;;;;;;4.69;68.01;100666.43;105497;1251;100869;-77
2023/02/15 09:26:49;;;;;;;39.40;21.60;;;;;;;4.66;67.94;100660.88;105814;1254;107657;-76
2023/02/15 09:29:18;;;;;;;37.70;21.50;;;;;;;4.62;67.80;100660.09;106106;1253;96613;-83
2023/02/15 09:31:49;;;;;;;36.60;21.40;;;;;;;4.57;67.63;100658.42;105670;1253;96541;-75
2023/02/15 09:34:20;;;;;;;35.80;20.30;;;;;;;4.54;67.98;100660.08;105542;1254;110677;-76
2023/02/15 09:36:49;;;;;;;37.90;20.70;;;;;;;4.49;67.83;100659.48;105368;1256;100925;-74
2023/02/15 09:39:23;;;;;;;39.00;21.20;;;;;;;4.43;67.45;100657.34;105557;1264;106155;-75
2023/02/15 09:42:19;;;;;;;35.20;20.40;;;;;;;4.35;67.69;100652.24;105484;1254;96666;-77
2023/02/15 09:45:06;;;;;;;38.10;21.40;;;;;;;4.23;67.49;100648.80;105342;1257;97186;-77
2023/02/15 09:48:12;;;;;;;39.00;21.50;;;;;;;4.10;67.64;100650.64;105228;1264;109550;-74
2023/02/15 09:50:59;;;;;;;36.60;20.60;;;;;;;4.04;67.37;100650.25;105945;1254;100670;-78
2023/02/15 09:53:49;;;;;;;35.70;20.20;;;;;;;4.00;67.57;100644.02;105599;1254;107623;-80
2023/02/15 09:56:37;;;;;;;42.50;23.50;;;;;;;3.97;67.41;100646.17;105772;1251;96629;-75
2023/02/15 09:59:26;;;;;;;37.40;20.90;;;;;;;3.95;67.35;100639.89;105329;1254;98035;-76
2023/02/15 10:02:13;;;;;;;39.70;21.40;;;;;;;3.92;67.32;100638.55;105228;1256;111218;-77
2023/02/15 10:05:08;;;;;;;36.50;20.60;;;;;;;3.87;67.21;100632.70;105259;1255;100885;-76
2023/02/15 10:08:08;;;;;;;35.60;20.10;;;;;;;3.84;67.23;100625.20;105819;1253;107624;-78
2023/02/15 10:11:38;;;;;;;36.90;20.10;;;;;;;3.80;67.40;100630.18;105446;1250;96628;-74
2023/02/15 10:14:14;;;;;;;37.00;18.50;;;;;;;3.76;67.35;100625.00;105491;1256;97093;-76
2023/02/15 10:16:52;;;;;;;33.50;18.70;;;;;;;3.77;67.25;100616.56;105346;1264;109520;-76
2023/02/15 10:19:24;;;;;;;36.50;20.20;;;;;;;3.78;67.09;100610.77;105434;1254;100529;-77
2023/02/15 10:21:57;;;;;;;36.20;20.60;;;;;;;3.78;67.33;100613.38;105228;1266;107346;-75
2023/02/15 10:24:49;;;;;;;35.00;20.20;;;;;;;3.80;66.94;100611.23;105457;1254;97527;-77
2023/02/15 10:27:21;;;;;;;37.30;20.60;;;;;;;3.80;67.26;100600.70;105274;1254;97080;-80
2023/02/15 10:30:09;;;;;;;38.40;22.00;;;;;;;3.84;67.21;100597.30;105366;1251;109893;-81
2023/02/15 10:32:59;;;;;;;35.50;19.80;;;;;;;3.85;67.19;100596.21;105245;1251;101100;-76
2023/02/15 10:35:52;;;;;;;35.70;19.10;;;;;;;3.86;67.05;100592.15;105090;1257;107080;-76
2023/02/15 10:38:35;;;;;;;38.30;19.20;;;;;;;3.86;67.14;100590.23;105455;1254;96603;-75
2023/02/15 10:41:27;;;;;;;37.60;20.40;;;;;;;3.85;67.15;100585.50;105324;1251;97100;-76
2023/02/15 10:44:17;;;;;;;37.50;20.50;;;;;;;3.86;67.17;100577.08;105585;1254;108277;-79
2023/02/15 10:47:24;;;;;;;37.90;21.40;;;;;;;3.90;67.35;100574.00;105334;1254;100532;-73
2023/02/15 10:50:21;;;;;;;37.90;20.00;;;;;;;3.95;67.11;100575.66;105378;1257;107781;-81
2023/02/15 10:53:27;;;;;;;35.20;19.70;;;;;;;3.96;67.03;100575.29;105569;1257;97811;-76
2023/02/15 10:56:12;;;;;;;39.50;20.30;;;;;;;3.96;67.19;100572.27;105231;1256;97837;-78
2023/02/15 10:58:40;;;;;;;37.60;20.00;;;;;;;3.97;67.08;100567.72;105483;1254;109453;-76
2023/02/15 11:01:30;;;;;;;35.90;19.30;;;;;;;3.98;67.11;100565.77;105460;1254;102186;-77
2023/02/15 11:04:08;;;;;;;35.20;19.70;;;;;;;4.00;67.02;100562.38;105456;1254;107673;-82
2023/02/15 11:06:42;;;;;;;35.20;19.80;;;;;;;4.05;66.95;100560.52;105242;1254;96821;-78
2023/02/15 11:09:13;;;;;;;35.10;19.50;;;;;;;4.08;66.97;100560.27;105755;1250;97099;-68
2023/02/15 11:11:46;;;;;;;35.20;19.70;;;;;;;4.08;66.84;100553.08;105861;1251;108380;-74
2023/02/15 11:14:53;;;;;;;39.60;21.40;;;;;;;4.08;66.78;100555.71;105527;1254;100654;-81
2023/02/15 11:17:27;;;;;;;36.30;20.40;;;;;;;4.11;67.02;100550.91;105637;1251;107615;-72
2023/02/15 11:20:18;;;;;;;32.30;18.20;;;;;;;4.13;67.02;100547.17;104891;1265;96682;-72
2023/02/15 11:22:50;;;;;;;37.50;20.10;;;;;;;4.13;66.74;100544.00;105667;1250;97092;-72
2023/02/15 11:25:28;;;;;;;38.40;21.20;;;;;;;4.16;66.79;100545.36;105472;1253;109894;-73
2023/02/15 11:27:56;;;;;;;39.50;21.10;;;;;;;4.19;66.97;100538.11;105343;1252;100931;-73
2023/02/15 11:30:38;;;;;;;37.70;20.50;;;;;;;4.20;66.58;100533.50;105431;1253;107577;-73
2023/02/15 11:33:18;;;;;;;37.90;20.30;;;;;;;4.22;66.88;100527.86;105418;1251;96971;-72
2023/02/15 11:35:52;;;;;;;35.60;19.70;;;;;;;4.24;66.76;100525.36;105468;1253;97811;-72
2023/02/15 11:38:28;;;;;;;39.20;22.30;;;;;;;4.26;66.66;100521.44;105670;1257;109490;-72
2023/02/15 11:41:06;;;;;;;41.50;22.20;;;;;;;4.30;66.86;100523.98;105705;1251;101127;-72
2023/02/15 11:43:51;;;;;;;36.10;19.30;;;;;;;4.32;66.70;100523.22;105112;1259;109342;-72
2023/02/15 11:46:20;;;;;;;36.70;20.10;;;;;;;4.33;66.71;100524.95;105327;1254;96702;-73
2023/02/15 11:48:49;;;;;;;38.50;21.10;;;;;;;4.32;66.64;100519.00;105458;1251;97096;-72
2023/02/15 11:51:22;;;;;;;36.30;20.70;;;;;;;4.34;66.53;100519.50;105454;1254;109969;-72
2023/02/15 11:53:51;;;;;;;36.10;19.00;;;;;;;4.36;66.64;100515.75;105443;1256;100919;-72